Time;durP1;ratioP1;P1;durP2;ratioP2;P2;SDS_P1;SDS_P2;PMS_P1;PMS_P2;Temp;Humidity;BMP_temperature;BMP_pressure;BME280_temperature;BME280_humidity;BME280_pressure;Samples;Min_cycle;Max_cycle;Signal;HPM_P1;HPM_P2
2021/07/22 00:00:13;;;;;;;8.50;5.57;;;15.40;99.90;;;16.28;100.00;98710.84;5047725;28;20491;-83
2021/07/22 00:02:43;;;;;;;16.70;5.47;;;15.10;99.90;;;16.24;100.00;98717.56;5046965;28;20461;-83
2021/07/22 00:05:12;;;;;;;23.43;6.50;;;15.10;99.90;;;16.12;100.00;98721.84;5046381;28;21022;-83
2021/07/22 00:07:42;;;;;;;8.17;5.20;;;14.90;99.90;;;16.07;100.00;98719.00;5048789;28;20820;-83
2021/07/22 00:10:13;;;;;;;9.07;5.50;;;14.90;99.90;;;16.14;100.00;98717.16;5047256;28;20461;-83
2021/07/22 00:12:42;;;;;;;9.03;5.00;;;15.00;99.90;;;16.14;100.00;98722.44;5047499;28;20507;-83
2021/07/22 00:15:12;;;;;;;11.20;5.43;;;14.90;99.90;;;16.08;100.00;98710.88;5044189;28;20477;-83
2021/07/22 00:17:40;;;;;;;6.00;4.57;;;14.90;99.90;;;16.01;100.00;98714.53;5049992;28;20477;-83
2021/07/22 00:20:11;;;;;;;10.37;5.70;;;14.80;99.90;;;15.96;100.00;98717.81;5048275;28;20465;-83
2021/07/22 00:22:40;;;;;;;11.30;5.40;;;14.80;99.90;;;16.10;100.00;98723.88;5045458;28;20508;-83
2021/07/22 00:25:11;;;;;;;8.00;4.80;;;15.00;99.90;;;16.09;100.00;98722.25;5045246;28;20534;-83
2021/07/22 00:27:40;;;;;;;12.63;5.30;;;14.90;99.90;;;16.12;100.00;98716.56;5047554;28;20866;-83
2021/07/22 00:30:09;;;;;;;12.13;5.20;;;15.10;99.90;;;16.16;100.00;98716.97;5045048;28;20988;-83
2021/07/22 00:32:38;;;;;;;10.37;5.10;;;15.10;99.90;;;16.14;100.00;98711.09;5045485;28;20477;-83
2021/07/22 00:35:08;;;;;;;8.20;4.63;;;15.00;99.90;;;15.91;100.00;98711.50;5048803;28;20465;-83
2021/07/22 00:37:36;;;;;;;6.40;5.00;;;14.70;99.90;;;15.81;100.00;98713.75;5047805;28;21037;-83
2021/07/22 00:40:06;;;;;;;6.97;5.10;;;14.60;99.90;;;15.97;100.00;98708.03;5048204;28;20499;-83
2021/07/22 00:43:03;;;;;;;11.13;5.43;;;14.80;99.90;;;15.79;100.00;98713.16;5046361;28;20495;-83
2021/07/22 00:45:32;;;;;;;12.07;5.60;;;14.60;99.90;;;15.91;100.00;98714.97;5045666;28;21042;-83
2021/07/22 00:48:01;;;;;;;8.60;5.10;;;14.80;99.90;;;15.91;100.00;98716.78;5045504;28;20521;-82
2021/07/22 00:50:30;;;;;;;9.03;5.60;;;14.80;99.90;;;15.73;100.00;98709.47;5044934;28;20461;-82
2021/07/22 00:53:00;;;;;;;7.03;4.47;;;14.60;99.90;;;15.47;100.00;98715.53;5046154;28;21228;-83
2021/07/22 00:55:30;;;;;;;8.67;4.60;;;14.30;99.90;;;15.63;100.00;98716.19;5044371;28;20461;-83
2021/07/22 00:57:58;;;;;;;11.73;5.40;;;14.50;99.90;;;15.72;100.00;98710.53;5046745;28;20465;-83
2021/07/22 01:00:28;;;;;;;9.07;5.20;;;14.70;99.90;;;15.72;100.00;98704.44;5044480;28;20518;-83
2021/07/22 01:02:57;;;;;;;8.60;5.27;;;14.70;99.90;;;15.56;100.00;98703.00;5047312;28;20465;-83
2021/07/22 01:05:26;;;;;;;9.90;5.00;;;14.40;99.90;;;15.59;100.00;98702.59;5046435;28;20495;-82
2021/07/22 01:07:54;;;;;;;7.37;5.47;;;14.50;99.90;;;15.63;100.00;98708.25;5048915;28;20970;-83
2021/07/22 01:10:23;;;;;;;8.03;4.73;;;14.50;99.90;;;15.70;100.00;98703.81;5044866;28;20465;-83
2021/07/22 01:12:51;;;;;;;11.40;5.20;;;14.60;99.90;;;15.58;100.00;98703.63;5046456;28;20453;-83
2021/07/22 01:15:20;;;;;;;16.13;4.40;;;14.50;99.90;;;15.36;100.00;98700.31;5045220;28;20668;-83
2021/07/22 01:17:51;;;;;;;8.83;4.93;;;14.20;99.90;;;15.40;100.00;98698.91;5052099;28;20508;-83
2021/07/22 01:20:23;;;;;;;9.03;4.90;;;14.20;99.90;;;15.49;100.00;98695.09;5046429;28;20468;-83
2021/07/22 01:22:54;;;;;;;8.97;5.07;;;14.30;99.90;;;15.47;100.00;98697.09;5048122;28;20913;-83
2021/07/22 01:25:24;;;;;;;15.40;5.17;;;14.30;99.90;;;15.42;100.00;98696.88;5042875;28;20586;-82
2021/07/22 01:27:53;;;;;;;8.50;5.23;;;14.20;99.90;;;15.41;100.00;98697.09;5042879;28;20481;-82
2021/07/22 01:30:21;;;;;;;9.67;5.17;;;14.20;99.90;;;15.33;100.00;98700.72;5044953;28;20963;-83
2021/07/22 01:32:52;;;;;;;9.90;5.23;;;14.10;99.90;;;15.32;100.00;98695.66;5047937;28;20469;-82
2021/07/22 01:35:22;;;;;;;7.03;4.67;;;14.20;99.90;;;15.29;100.00;98691.59;5046123;28;21096;-83
2021/07/22 01:37:50;;;;;;;7.80;5.40;;;14.10;99.90;;;15.11;100.00;98692.19;5045914;28;20542;-82
2021/07/22 01:40:19;;;;;;;7.70;5.03;;;13.90;99.90;;;15.23;100.00;98695.03;5044111;28;21044;-83
2021/07/22 01:42:48;;;;;;;9.70;5.10;;;14.10;99.90;;;15.17;100.00;98690.56;5045761;28;20499;-82
2021/07/22 01:45:16;;;;;;;8.40;5.30;;;14.00;99.90;;;15.21;100.00;98690.97;5040857;28;20536;-82
2021/07/22 01:47:45;;;;;;;9.20;5.80;;;14.10;99.90;;;15.11;100.00;98696.63;5039885;28;20548;-82
2021/07/22 01:50:14;;;;;;;9.00;5.20;;;14.00;99.90;;;15.04;100.00;98693.16;5040807;28;20939;-82
2021/07/22 01:52:43;;;;;;;9.07;4.87;;;13.90;99.90;;;15.07;100.00;98696.22;5041054;28;20469;-82
2021/07/22 01:55:12;;;;;;;9.63;4.80;;;13.90;99.90;;;15.07;100.00;98695.41;5048133;28;20784;-83
2021/07/22 01:57:41;;;;;;;8.50;5.10;;;13.90;99.90;;;15.19;100.00;98690.38;5047454;28;20511;-83
2021/07/22 02:00:11;;;;;;;7.17;4.93;;;14.00;99.90;;;15.07;100.00;98695.41;5046931;28;20499;-83
2021/07/22 02:02:41;;;;;;;8.40;5.93;;;13.90;99.90;;;14.98;100.00;98693.97;5048111;28;20471;-83
2021/07/22 02:05:11;;;;;;;8.40;5.27;;;13.80;99.90;;;14.99;100.00;98692.97;5047843;28;20492;-82
2021/07/22 02:07:39;;;;;;;8.47;5.30;;;13.90;99.90;;;14.90;100.00;98700.22;5043409;28;20499;-83
2021/07/22 02:10:10;;;;;;;6.90;4.57;;;13.80;99.90;;;15.01;100.00;98693.56;5044308;28;20461;-82
2021/07/22 02:12:38;;;;;;;9.20;5.50;;;13.90;99.90;;;14.95;100.00;98686.47;5044564;28;20562;-82
2021/07/22 02:15:08;;;;;;;14.97;4.97;;;13.80;99.90;;;14.89;100.00;98684.63;5044380;28;20517;-82
2021/07/22 02:17:36;;;;;;;7.00;4.83;;;13.70;99.90;;;14.96;100.00;98690.75;5045754;28;20506;-82
2021/07/22 02:20:06;;;;;;;8.40;5.60;;;13.80;99.90;;;14.85;100.00;98691.31;5045400;28;20805;-82
2021/07/22 02:22:35;;;;;;;9.33;5.60;;;13.70;99.90;;;14.91;100.00;98690.50;5049459;28;21503;-83
2021/07/22 02:25:04;;;;;;;10.33;5.27;;;13.70;99.90;;;14.79;100.00;98695.53;5043004;28;21565;-83
2021/07/22 02:27:35;;;;;;;8.43;5.20;;;13.60;99.90;;;14.93;100.00;98693.75;5042041;28;20484;-83
2021/07/22 02:30:06;;;;;;;8.63;4.97;;;13.80;99.90;;;14.69;100.00;98687.19;5044174;28;20496;-83
2021/07/22 02:32:34;;;;;;;6.93;4.70;;;13.50;99.90;;;14.72;100.00;98692.06;5044242;28;20469;-82
2021/07/22 02:35:03;;;;;;;12.13;5.30;;;13.50;99.90;;;14.66;100.00;98689.41;5045310;28;20465;-82
2021/07/22 02:37:32;;;;;;;6.60;4.87;;;13.50;99.90;;;14.48;100.00;98693.38;5042212;28;20465;-82
2021/07/22 02:40:00;;;;;;;9.00;5.00;;;13.30;99.90;;;14.55;100.00;98694.22;5041964;28;20962;-82
2021/07/22 02:42:28;;;;;;;7.97;4.70;;;13.40;99.90;;;14.59;100.00;98695.47;5046686;28;20483;-83
2021/07/22 02:44:58;;;;;;;13.73;5.50;;;13.40;99.90;;;14.55;100.00;98702.13;5044661;28;20461;-82
2021/07/22 02:47:27;;;;;;;7.73;5.50;;;13.40;99.90;;;14.61;100.00;98700.53;5041983;28;20504;-83
2021/07/22 02:49:55;;;;;;;6.63;5.30;;;13.50;99.90;;;14.48;100.00;98701.28;5043894;28;20526;-82
2021/07/22 02:52:24;;;;;;;7.87;4.77;;;13.40;99.90;;;14.52;100.00;98692.00;5044804;28;20961;-83
2021/07/22 02:54:52;;;;;;;11.30;4.80;;;13.30;99.90;;;14.73;100.00;98698.94;5045251;28;20522;-82
2021/07/22 02:57:21;;;;;;;12.77;5.97;;;13.60;99.90;;;14.86;100.00;98703.44;5044566;28;20880;-83
2021/07/22 02:59:49;;;;;;;11.03;5.20;;;13.80;99.90;;;14.91;100.00;98703.69;5046444;28;20469;-82
2021/07/22 03:02:19;;;;;;;7.90;5.50;;;13.80;99.90;;;14.97;100.00;98708.13;5043811;28;20449;-83
2021/07/22 03:04:48;;;;;;;11.80;5.83;;;13.90;99.90;;;15.04;100.00;98707.16;5042990;28;20765;-82
2021/07/22 03:07:16;;;;;;;7.80;5.23;;;14.00;99.90;;;14.96;100.00;98709.19;5043246;28;20911;-83
2021/07/22 03:09:46;;;;;;;7.70;4.67;;;13.90;99.90;;;15.01;100.00;98697.03;5049482;28;20537;-83
2021/07/22 03:12:14;;;;;;;11.40;4.50;;;14.00;99.90;;;15.03;100.00;98705.53;5044294;28;20959;-82
2021/07/22 03:14:43;;;;;;;9.40;5.50;;;14.00;99.90;;;15.12;100.00;98698.25;5040207;28;20538;-82
2021/07/22 03:17:11;;;;;;;8.67;5.33;;;14.00;99.90;;;15.10;100.00;98705.53;5042557;28;21203;-82
2021/07/22 03:19:42;;;;;;;9.17;5.10;;;14.00;99.90;;;15.01;100.00;98697.03;5042480;28;20532;-82
2021/07/22 03:22:10;;;;;;;5.90;4.50;;;14.00;99.90;;;15.07;100.00;98701.47;5041222;28;20551;-83
2021/07/22 03:24:39;;;;;;;8.53;5.10;;;14.00;99.90;;;15.08;100.00;98703.13;5044678;28;20453;-83
2021/07/22 03:27:07;;;;;;;8.63;5.13;;;14.00;99.90;;;15.06;100.00;98696.44;5042148;28;20561;-82
2021/07/22 03:29:36;;;;;;;8.07;5.10;;;14.00;99.90;;;14.96;100.00;98691.53;5041118;28;20469;-82
2021/07/22 03:32:07;;;;;;;10.73;5.33;;;13.90;99.90;;;14.96;100.00;98688.09;5046515;28;20457;-82
2021/07/22 03:34:35;;;;;;;7.27;4.83;;;13.90;99.90;;;15.04;100.00;98693.97;5041968;28;20461;-82
2021/07/22 03:37:05;;;;;;;8.47;5.20;;;13.90;99.90;;;15.08;100.00;98691.75;5038787;28;20519;-83
2021/07/22 03:39:34;;;;;;;8.40;5.43;;;14.00;99.90;;;14.95;100.00;98691.75;5046186;28;20487;-82
2021/07/22 03:42:02;;;;;;;6.83;4.63;;;13.80;99.90;;;15.01;100.00;98686.47;5044446;28;20609;-83
2021/07/22 03:44:31;;;;;;;7.20;5.20;;;13.90;99.90;;;14.99;100.00;98692.97;5042090;28;20884;-80
2021/07/22 03:47:00;;;;;;;11.80;5.83;;;13.90;99.90;;;14.98;100.00;98696.59;5043371;28;20977;-82
2021/07/22 03:49:29;;;;;;;8.43;5.80;;;13.90;99.90;;;14.86;100.00;98691.09;5036771;28;20971;-84
2021/07/22 03:51:58;;;;;;;8.63;5.37;;;13.70;99.90;;;14.91;100.00;98687.88;5046050;28;20449;-84
2021/07/22 03:54:28;;;;;;;8.50;5.50;;;13.80;99.90;;;14.92;100.00;98682.41;5041968;28;21057;-84
2021/07/22 03:56:57;;;;;;;10.50;5.30;;;13.80;99.90;;;14.88;100.00;98683.00;5045085;28;20551;-84
2021/07/22 03:59:25;;;;;;;10.43;4.80;;;13.70;99.90;;;14.82;100.00;98691.72;5047318;28;20441;-83
2021/07/22 04:01:54;;;;;;;8.40;5.60;;;13.70;99.90;;;14.86;100.00;98683.19;5049903;28;20453;-83
2021/07/22 04:04:22;;;;;;;7.47;5.20;;;13.80;99.90;;;14.87;100.00;98687.47;5049936;28;20485;-83
2021/07/22 04:06:51;;;;;;;6.17;4.77;;;13.80;99.90;;;14.83;100.00;98688.84;5046678;28;20524;-84
2021/07/22 04:09:19;;;;;;;9.30;5.13;;;13.70;99.90;;;14.87;100.00;98689.28;5050458;28;20851;-82
2021/07/22 04:11:52;;;;;;;11.50;7.20;;;13.80;99.90;;;14.84;100.00;98692.31;5047898;28;20518;-83
2021/07/22 04:14:20;;;;;;;10.50;5.60;;;13.70;99.90;;;14.76;100.00;98692.47;5045376;28;20737;-82
2021/07/22 04:16:49;;;;;;;10.50;6.23;;;13.70;99.90;;;14.79;100.00;98692.88;5049383;28;20951;-83
2021/07/22 04:19:17;;;;;;;8.43;5.10;;;13.70;99.90;;;14.73;100.00;98693.69;5050287;28;20512;-83
2021/07/22 04:21:46;;;;;;;14.80;6.50;;;13.60;99.90;;;14.78;100.00;98696.56;5049548;28;20441;-83
2021/07/22 04:24:14;;;;;;;10.70;6.00;;;13.70;99.90;;;14.82;100.00;98699.59;5049384;28;20445;-83
2021/07/22 04:26:43;;;;;;;10.20;5.87;;;13.70;99.90;;;14.86;100.00;98698.19;5049614;28;20489;-83
2021/07/22 04:29:13;;;;;;;7.20;4.77;;;13.80;99.90;;;14.85;100.00;98701.84;5049073;28;20464;-84
2021/07/22 04:31:41;;;;;;;11.80;5.67;;;13.70;99.90;;;14.83;100.00;98703.84;5049269;28;20451;-83
2021/07/22 04:34:10;;;;;;;7.47;5.20;;;13.80;99.90;;;14.87;100.00;98702.44;5044381;28;20449;-82
2021/07/22 04:36:38;;;;;;;7.07;4.83;;;13.70;99.90;;;14.87;100.00;98705.88;5046816;28;20449;-83
2021/07/22 04:39:07;;;;;;;11.87;5.20;;;13.70;99.90;;;14.89;100.00;98709.13;5049251;28;20453;-82
2021/07/22 04:41:37;;;;;;;12.03;5.57;;;13.80;99.90;;;14.88;100.00;98704.88;5044278;28;20858;-82
2021/07/22 04:44:06;;;;;;;10.53;5.10;;;13.80;99.90;;;14.82;100.00;98705.66;5050709;28;20511;-81
2021/07/22 04:46:35;;;;;;;12.50;5.70;;;13.80;99.90;;;14.78;100.00;98704.44;5048566;28;20481;-81
2021/07/22 04:49:04;;;;;;;11.83;6.17;;;13.70;99.90;;;14.84;100.00;98705.47;5049834;28;20943;-82
2021/07/22 04:51:32;;;;;;;8.20;4.93;;;13.80;99.90;;;14.74;100.00;98705.03;5051021;28;20445;-82
2021/07/22 04:54:01;;;;;;;9.77;5.80;;;13.60;99.90;;;14.55;100.00;98704.75;5051650;28;20453;-84
2021/07/22 04:56:29;;;;;;;9.80;5.50;;;13.40;99.90;;;14.58;100.00;98695.66;5049980;28;20452;-82
2021/07/22 04:58:58;;;;;;;8.20;5.30;;;13.50;99.90;;;14.56;100.00;98698.50;5042567;28;20442;-82
2021/07/22 05:01:26;;;;;;;7.57;5.10;;;13.50;99.90;;;14.49;100.00;98697.66;5051826;28;20952;-83
2021/07/22 05:03:56;;;;;;;10.80;6.27;;;13.40;99.90;;;14.55;100.00;98696.84;5053607;28;20452;-82
2021/07/22 05:06:25;;;;;;;7.47;5.43;;;13.50;99.90;;;14.50;100.00;98701.09;5048033;28;20445;-82
2021/07/22 05:09:17;;;;;;;10.40;5.70;;;13.50;99.90;;;14.51;100.00;98700.88;5054515;28;20501;-83
2021/07/22 05:12:07;;;;;;;6.93;4.73;;;13.50;99.90;;;14.42;100.00;98702.06;5050433;28;20457;-83
2021/07/22 05:15:18;;;;;;;9.23;5.33;;;13.40;99.90;;;14.49;100.00;98696.81;5065772;28;20546;-83
2021/07/22 05:18:01;;;;;;;7.13;5.10;;;13.50;99.90;;;14.46;100.00;98699.84;5029931;28;20544;-82
2021/07/22 05:21:04;;;;;;;7.40;5.20;;;13.50;99.90;;;14.43;100.00;98703.69;5051851;28;20842;-83
2021/07/22 05:23:41;;;;;;;13.33;5.47;;;13.40;99.90;;;14.58;100.00;98700.91;5043402;28;20576;-83
2021/07/22 05:26:16;;;;;;;8.80;5.53;;;13.60;99.90;;;14.68;100.00;98705.84;5048439;28;20507;-82
2021/07/22 05:28:52;;;;;;;19.33;5.87;;;13.60;99.90;;;14.75;100.00;98714.56;5048247;28;20492;-82
2021/07/22 05:31:34;;;;;;;10.00;5.50;;;13.80;99.90;;;14.86;100.00;98703.44;5037444;28;21033;-82
2021/07/22 05:34:20;;;;;;;9.67;6.27;;;14.00;99.90;;;14.89;100.00;98708.34;5045244;28;20449;-82
2021/07/22 05:37:04;;;;;;;9.73;5.40;;;13.90;99.90;;;14.98;100.00;98705.31;5048497;28;20502;-83
2021/07/22 05:40:00;;;;;;;16.43;5.57;;;14.00;99.90;;;15.07;100.00;98712.03;5053251;28;20997;-83
2021/07/22 05:42:34;;;;;;;12.00;5.73;;;14.10;99.90;;;15.13;100.00;98715.69;5042854;28;20457;-84
2021/07/22 05:45:16;;;;;;;6.80;4.63;;;14.20;99.90;;;15.13;100.00;98719.13;5048246;28;20888;-83
2021/07/22 05:47:52;;;;;;;13.50;5.87;;;14.20;99.90;;;15.11;100.00;98712.44;5046256;28;21003;-82
2021/07/22 05:50:24;;;;;;;8.70;5.77;;;14.30;99.90;;;15.20;100.00;98718.34;5045389;28;20449;-82
2021/07/22 05:53:15;;;;;;;8.40;5.20;;;14.30;99.90;;;15.24;100.00;98717.72;5046950;28;20942;-82
2021/07/22 05:55:45;;;;;;;10.70;5.20;;;14.30;99.90;;;15.20;100.00;98715.72;5049506;28;20449;-82
2021/07/22 05:58:46;;;;;;;14.80;5.10;;;14.30;99.90;;;15.33;100.00;98706.00;5041604;28;20454;-82
2021/07/22 06:01:38;;;;;;;10.73;5.50;;;14.40;99.90;;;15.40;100.00;98712.09;5051174;28;20506;-83
2021/07/22 06:04:18;;;;;;;9.10;5.20;;;14.50;99.90;;;15.48;100.00;98708.47;5053845;28;20463;-83
2021/07/22 06:07:18;;;;;;;11.80;5.50;;;14.50;99.90;;;15.54;100.00;98708.50;5051407;28;20458;-82
2021/07/22 06:10:10;;;;;;;7.83;5.07;;;14.50;99.90;;;15.62;100.00;98709.31;5053652;28;20846;-83
2021/07/22 06:13:01;;;;;;;11.30;6.77;;;14.70;99.90;;;15.71;100.00;98708.88;5050019;28;20519;-83
2021/07/22 06:16:00;;;;;;;9.03;5.23;;;14.80;99.90;;;15.82;100.00;98710.91;5049110;28;20491;-83
2021/07/22 06:18:31;;;;;;;8.80;5.60;;;14.90;99.90;;;15.87;100.00;98702.38;5028403;28;20955;-82
2021/07/22 06:21:16;;;;;;;7.90;5.57;;;14.90;99.90;;;15.93;100.00;98706.84;5053774;28;20452;-82
2021/07/22 06:23:48;;;;;;;13.80;5.20;;;15.00;99.90;;;15.99;100.00;98695.47;5049725;28;20511;-82
2021/07/22 06:26:41;;;;;;;7.60;5.20;;;15.00;99.90;;;16.04;100.00;98699.09;5049162;28;20551;-83
2021/07/22 06:29:22;;;;;;;8.10;5.40;;;15.10;99.90;;;16.09;100.00;98698.50;5053023;28;20493;-82
2021/07/22 06:32:04;;;;;;;9.13;5.67;;;15.10;99.90;;;16.13;100.00;98697.06;5050536;28;20456;-83
2021/07/22 06:34:49;;;;;;;15.60;5.47;;;15.10;99.90;;;16.18;100.00;98699.06;5053110;28;20453;-83
2021/07/22 06:37:19;;;;;;;8.33;5.50;;;15.20;99.90;;;16.20;100.00;98695.25;5056628;28;20514;-82
2021/07/22 06:40:00;;;;;;;15.13;6.47;;;15.20;99.90;;;16.30;100.00;98700.91;5051608;28;20461;-82
2021/07/22 06:42:37;;;;;;;11.87;5.80;;;15.30;99.90;;;16.37;100.00;98699.03;5043004;28;20484;-82
2021/07/22 06:45:16;;;;;;;13.07;6.83;;;15.40;99.90;;;16.41;100.00;98697.63;5052356;28;20977;-82
2021/07/22 06:48:08;;;;;;;11.63;6.70;;;15.40;99.90;;;16.51;100.00;98698.00;5050494;28;21018;-83
2021/07/22 06:50:52;;;;;;;19.07;8.07;;;15.50;99.90;;;16.56;100.00;98692.91;5048450;28;20973;-82
2021/07/22 06:53:27;;;;;;;10.40;7.13;;;15.70;99.90;;;16.67;100.00;98693.28;5053052;28;20456;-82
2021/07/22 06:56:03;;;;;;;12.20;8.20;;;15.80;99.90;;;16.73;100.00;98692.44;5044446;28;20487;-82
2021/07/22 06:58:57;;;;;;;14.53;8.43;;;15.80;99.90;;;16.80;100.00;98688.72;5045772;28;20475;-83
2021/07/22 07:04:34;;;;;;;16.10;7.80;;;15.90;99.90;;;16.96;100.00;98688.25;5050973;28;20965;-82
2021/07/22 07:07:10;;;;;;;11.97;7.80;;;16.00;99.90;;;17.03;100.00;98682.94;5047912;28;21029;-83
2021/07/22 07:09:49;;;;;;;18.27;7.30;;;16.10;99.90;;;17.10;100.00;98678.44;5046554;28;20920;-82
2021/07/22 07:15:15;;;;;;;14.87;7.50;;;16.30;99.90;;;17.24;100.00;98681.78;5046022;28;20479;-82
2021/07/22 07:17:56;;;;;;;9.53;5.67;;;16.40;99.90;;;17.32;100.00;98679.69;5058700;28;20464;-83
2021/07/22 07:20:36;;;;;;;13.30;5.70;;;16.40;99.90;;;17.37;100.00;98685.16;5051888;28;20856;-83
2021/07/22 07:23:35;;;;;;;9.83;5.90;;;16.50;99.90;;;17.46;100.00;98681.22;5047949;28;20567;-82
2021/07/22 07:26:13;;;;;;;17.30;6.10;;;16.50;99.90;;;17.54;100.00;98686.25;5042380;28;20550;-82
2021/07/22 07:28:59;;;;;;;12.63;5.70;;;16.70;99.90;;;17.60;100.00;98688.03;5055376;28;20495;-83
2021/07/22 07:31:45;;;;;;;7.37;5.43;;;16.80;99.90;;;17.69;100.00;98687.78;5048271;28;20544;-83
2021/07/22 07:34:46;;;;;;;8.57;5.00;;;16.90;99.90;;;17.78;100.00;98692.56;5051654;28;20883;-83
2021/07/22 07:37:20;;;;;;;13.87;5.70;;;17.00;99.90;;;17.83;100.00;98689.28;5051801;28;20456;-82
2021/07/22 07:40:15;;;;;;;9.30;5.70;;;17.10;99.90;;;17.91;100.00;98686.38;5056113;28;20453;-82
2021/07/22 07:42:46;;;;;;;15.03;6.60;;;17.20;99.90;;;17.97;100.00;98685.50;5051843;28;20519;-82
2021/07/22 07:45:25;;;;;;;10.80;5.50;;;17.20;99.90;;;18.05;100.00;98678.06;5051672;28;20444;-82
2021/07/22 07:48:18;;;;;;;12.20;5.07;;;17.30;99.90;;;18.13;100.00;98678.81;5052261;28;20990;-82
2021/07/22 07:51:05;;;;;;;6.60;5.13;;;17.40;99.90;;;18.20;100.00;98683.00;5052360;28;20511;-82
2021/07/22 07:53:40;;;;;;;10.27;5.13;;;17.50;99.90;;;18.27;100.00;98686.41;5051813;28;20464;-82
2021/07/22 07:56:43;;;;;;;16.90;6.10;;;17.50;99.90;;;18.36;100.00;98684.28;5049340;28;20468;-82
2021/07/22 07:59:13;;;;;;;7.50;5.10;;;17.60;99.90;;;18.42;100.00;98684.22;5049506;28;20461;-82
2021/07/22 08:01:50;;;;;;;13.70;5.40;;;17.70;99.90;;;18.48;100.00;98679.84;5052966;28;20538;-83
2021/07/22 08:04:31;;;;;;;8.93;4.80;;;17.80;99.90;;;18.55;100.00;98684.06;5054473;28;20572;-83
2021/07/22 08:07:07;;;;;;;6.90;4.40;;;17.90;99.90;;;18.65;100.00;98685.38;5051909;28;20970;-83
2021/07/22 08:09:47;;;;;;;11.20;5.57;;;17.90;99.90;;;18.71;100.00;98681.84;5059989;28;20495;-83
2021/07/22 08:12:26;;;;;;;11.17;5.50;;;17.90;99.90;;;18.79;100.00;98684.19;5050423;28;20492;-83
2021/07/22 08:14:57;;;;;;;9.77;4.67;;;18.10;99.90;;;18.85;100.00;98672.69;5048263;28;20463;-82
2021/07/22 08:17:42;;;;;;;11.23;4.90;;;18.10;99.90;;;18.91;100.00;98683.22;5052371;28;20515;-82
2021/07/22 08:20:41;;;;;;;6.30;4.37;;;18.20;99.90;;;18.98;100.00;98669.88;5053861;28;20484;-82
2021/07/22 08:23:16;;;;;;;15.33;6.17;;;18.20;99.90;;;19.04;100.00;98672.44;5046999;28;20450;-82
2021/07/22 08:25:46;;;;;;;7.83;5.27;;;18.30;99.90;;;19.13;100.00;98680.84;5052185;28;20445;-82
2021/07/22 08:28:35;;;;;;;11.33;5.53;;;18.40;99.90;;;19.16;100.00;98680.41;5051658;28;20464;-83
2021/07/22 08:31:18;;;;;;;7.93;5.30;;;18.40;99.90;;;19.21;100.00;98664.63;5053357;28;20453;-83
2021/07/22 08:34:14;;;;;;;9.50;5.40;;;18.40;99.90;;;19.26;100.00;98675.38;5050166;28;20523;-83
2021/07/22 08:36:50;;;;;;;13.03;5.23;;;18.50;99.90;;;19.33;100.00;98681.38;5046538;28;20943;-82
2021/07/22 08:39:30;;;;;;;8.73;5.40;;;18.60;99.90;;;19.38;100.00;98673.53;5050155;28;20457;-83
2021/07/22 08:42:07;;;;;;;10.70;5.87;;;18.60;99.90;;;19.44;100.00;98670.00;5052385;28;20998;-82
2021/07/22 08:44:43;;;;;;;12.20;6.20;;;18.70;99.90;;;19.51;100.00;98670.72;5047581;28;20432;-84
2021/07/22 08:47:17;;;;;;;8.47;5.20;;;18.90;99.90;;;19.61;100.00;98664.84;5049827;28;20505;-82
2021/07/22 08:49:47;;;;;;;16.17;6.07;;;19.00;99.90;;;19.68;100.00;98667.41;5050693;28;20512;-83
2021/07/22 08:52:19;;;;;;;15.60;5.73;;;19.00;99.90;;;19.76;100.00;98662.53;5052943;28;20453;-83
2021/07/22 08:54:51;;;;;;;9.43;6.10;;;19.10;99.90;;;19.81;100.00;98653.91;5053384;28;20492;-82
2021/07/22 08:57:29;;;;;;;9.80;5.50;;;19.10;99.90;;;19.88;100.00;98658.06;5050749;28;20472;-82
2021/07/22 09:00:04;;;;;;;8.43;5.10;;;19.20;99.90;;;19.97;100.00;98661.16;5048910;28;20547;-83
2021/07/22 09:02:36;;;;;;;7.80;5.90;;;19.30;99.90;;;20.04;100.00;98662.66;5047289;28;20468;-82
2021/07/22 09:05:08;;;;;;;7.23;4.93;;;19.50;99.90;;;20.10;100.00;98655.59;5055419;28;20487;-83
2021/07/22 09:07:42;;;;;;;10.57;5.27;;;19.50;99.90;;;20.18;98.07;98651.78;5054674;28;20506;-82
2021/07/22 09:10:21;;;;;;;12.07;5.13;;;19.60;99.90;;;20.29;98.20;98650.97;5054024;28;20485;-82
2021/07/22 09:12:54;;;;;;;7.10;4.40;;;19.80;99.90;;;20.38;98.37;98650.38;5059301;28;20557;-82
2021/07/22 09:15:32;;;;;;;6.23;4.07;;;19.80;99.90;;;20.45;95.63;98650.25;5051235;28;20441;-82
2021/07/22 09:18:25;;;;;;;9.63;4.40;;;19.90;99.90;;;20.52;89.75;98642.94;5045386;28;20466;-82
2021/07/22 09:21:21;;;;;;;9.00;5.20;;;20.00;99.90;;;20.62;90.57;98647.69;5049884;28;20802;-82
2021/07/22 09:24:18;;;;;;;12.17;5.00;;;20.10;99.90;;;20.75;88.11;98642.06;5051103;28;20461;-82
2021/07/22 09:26:50;;;;;;;6.40;4.87;;;20.30;99.90;;;20.83;87.19;98644.34;5050111;28;20870;-82
2021/07/22 09:29:21;;;;;;;8.37;5.07;;;20.30;99.90;;;20.91;85.70;98641.28;5053513;28;20911;-82
2021/07/22 09:31:50;;;;;;;8.20;5.07;;;20.40;99.90;;;20.99;87.76;98646.25;5054184;28;20449;-81
2021/07/22 09:34:25;;;;;;;10.80;4.80;;;20.40;99.90;;;21.08;85.75;98642.13;5045905;28;20441;-82
2021/07/22 09:36:54;;;;;;;6.90;4.30;;;20.60;99.90;;;21.14;85.03;98637.75;5051107;28;20453;-82
2021/07/22 09:39:29;;;;;;;11.40;4.83;;;20.60;99.90;;;21.19;82.29;98638.63;5051057;28;20464;-82
2021/07/22 09:42:04;;;;;;;8.20;4.97;;;20.70;99.90;;;21.24;83.49;98638.72;5054350;28;20442;-82
2021/07/22 09:44:36;;;;;;;9.10;4.90;;;20.70;99.90;;;21.30;85.42;98639.63;5045595;28;20969;-82
2021/07/22 09:47:07;;;;;;;10.13;5.30;;;20.70;99.90;;;21.34;84.51;98646.06;5049644;28;21357;-82
2021/07/22 09:49:37;;;;;;;6.90;4.80;;;20.80;99.90;;;21.37;82.52;98643.75;5050412;28;20554;-82
2021/07/22 09:52:23;;;;;;;7.47;5.00;;;20.80;99.90;;;21.44;84.74;98636.41;5051280;28;20514;-81
2021/07/22 09:54:53;;;;;;;11.00;5.87;;;20.90;99.90;;;21.48;83.55;98632.22;5052825;28;20810;-82
2021/07/22 09:57:22;;;;;;;8.53;5.33;;;20.90;99.90;;;21.53;81.81;98628.81;5045652;28;20461;-81
2021/07/22 09:59:53;;;;;;;14.90;6.03;;;20.90;99.90;;;21.58;82.15;98632.38;5050804;28;20448;-82
2021/07/22 10:02:24;;;;;;;9.73;5.13;;;21.00;99.90;;;21.57;86.60;98640.59;5050398;28;20465;-82
2021/07/22 10:04:58;;;;;;;11.37;5.60;;;20.90;99.90;;;21.61;85.36;98631.06;5050389;28;20495;-82
2021/07/22 10:07:30;;;;;;;9.37;5.97;;;21.00;99.90;;;21.65;83.60;98636.72;5048721;28;20453;-81
2021/07/22 10:10:05;;;;;;;15.77;6.37;;;21.00;99.90;;;21.68;81.46;98634.38;5050506;28;20499;-82
2021/07/22 10:12:37;;;;;;;9.70;6.70;;;21.00;99.90;;;21.69;78.85;98635.19;5050528;28;20473;-82
2021/07/22 10:15:07;;;;;;;10.03;5.40;;;21.20;99.90;;;21.69;79.82;98627.19;5045818;28;20907;-82
2021/07/22 10:17:37;;;;;;;10.03;6.07;;;21.00;99.90;;;21.71;78.80;98627.75;5041429;28;20441;-82
2021/07/22 10:20:08;;;;;;;22.50;5.63;;;21.00;99.90;;;21.79;80.10;98622.00;5049545;28;20956;-82
2021/07/22 10:22:38;;;;;;;10.13;5.93;;;21.10;99.90;;;21.86;81.66;98627.97;5054094;28;20471;-82
2021/07/22 10:25:12;;;;;;;11.27;6.10;;;21.20;99.90;;;21.94;81.35;98623.03;5050016;28;20453;-82
2021/07/22 10:27:45;;;;;;;9.37;6.03;;;21.30;99.90;;;22.03;80.21;98620.78;5052501;28;20966;-82
2021/07/22 10:30:20;;;;;;;7.13;5.23;;;21.50;99.90;;;22.08;82.22;98618.16;5045978;28;21027;-82
2021/07/22 10:32:53;;;;;;;7.30;5.13;;;21.40;99.90;;;22.17;80.73;98624.69;5047748;28;20445;-82
2021/07/22 10:35:23;;;;;;;9.93;5.97;;;21.60;99.90;;;22.22;77.10;98615.94;5043961;28;20448;-81
2021/07/22 10:38:14;;;;;;;9.60;5.47;;;21.70;99.90;;;22.27;77.82;98613.34;5048614;28;20457;-81
2021/07/22 10:40:57;;;;;;;9.07;5.83;;;21.70;99.90;;;22.30;76.40;98605.66;5047154;28;20447;-82
2021/07/22 10:43:43;;;;;;;8.80;6.63;;;21.70;99.90;;;22.36;78.02;98599.31;5043651;28;20572;-81
2021/07/22 10:46:14;;;;;;;17.37;5.70;;;21.80;99.90;;;22.42;77.78;98598.31;5048372;28;20473;-82